Time;durP1;ratioP1;P1;durP2;ratioP2;P2;SDS_P1;SDS_P2;PMS_P1;PMS_P2;Temp;Humidity;BMP_temperature;BMP_pressure;BME280_temperature;BME280_humidity;BME280_pressure;Samples;Min_cycle;Max_cycle;Signal;HPM_P1;HPM_P2
2023/06/14 00:00:16;;;;;;;4.05;2.83;;;11.10;98.60;;;;;;4941347;28;20059;-65
2023/06/14 00:02:43;;;;;;;3.00;2.63;;;11.10;98.50;;;;;;4943520;28;20090;-68
2023/06/14 00:05:12;;;;;;;3.22;2.55;;;11.10;98.40;;;;;;4944519;28;20039;-63
2023/06/14 00:07:43;;;;;;;3.15;2.85;;;11.10;98.30;;;;;;4942956;28;20053;-65
2023/06/14 00:10:14;;;;;;;9.00;3.45;;;11.00;98.40;;;;;;4944804;28;20457;-70
2023/06/14 00:12:42;;;;;;;3.20;2.92;;;11.00;98.50;;;;;;4940189;28;20430;-64
2023/06/14 00:15:09;;;;;;;5.50;2.88;;;11.00;98.60;;;;;;4943835;28;20056;-67
2023/06/14 00:17:38;;;;;;;3.83;2.42;;;10.90;98.70;;;;;;4941140;28;20130;-66
2023/06/14 00:20:06;;;;;;;2.97;2.67;;;10.90;98.70;;;;;;4941006;28;20409;-64
2023/06/14 00:22:34;;;;;;;2.78;2.58;;;10.80;98.80;;;;;;4942331;28;20052;-68
2023/06/14 00:25:01;;;;;;;4.15;2.92;;;10.80;99.00;;;;;;4940880;28;20587;-67
2023/06/14 00:27:45;;;;;;;6.20;2.40;;;10.80;99.10;;;;;;4941928;28;20047;-67
2023/06/14 00:30:14;;;;;;;4.63;3.13;;;10.70;99.10;;;;;;4939429;28;20062;-66
2023/06/14 00:32:42;;;;;;;2.75;2.55;;;10.70;99.00;;;;;;4934560;28;20047;-64
2023/06/14 00:35:10;;;;;;;5.05;2.83;;;10.70;98.80;;;;;;4940522;28;20047;-65
2023/06/14 00:37:38;;;;;;;3.55;2.38;;;10.70;99.20;;;;;;4932849;28;20110;-65
2023/06/14 00:40:06;;;;;;;3.85;2.42;;;10.60;99.40;;;;;;4940158;28;20074;-63
2023/06/14 00:42:33;;;;;;;3.70;2.35;;;10.60;99.60;;;;;;4939183;28;20103;-63
2023/06/14 00:45:00;;;;;;;5.25;3.00;;;10.50;99.70;;;;;;4937188;28;20070;-66
2023/06/14 00:47:27;;;;;;;2.72;2.45;;;10.50;99.40;;;;;;4935019;28;20040;-64
2023/06/14 00:49:55;;;;;;;4.97;3.42;;;10.50;99.60;;;;;;4940584;28;20489;-64
2023/06/14 00:52:24;;;;;;;5.22;2.30;;;10.40;99.70;;;;;;4941112;28;20055;-69
2023/06/14 00:54:51;;;;;;;4.43;2.63;;;10.40;99.70;;;;;;4939080;28;20074;-65
2023/06/14 00:57:18;;;;;;;5.22;2.45;;;10.40;99.70;;;;;;4954025;28;20074;-65
2023/06/14 00:59:48;;;;;;;4.05;3.03;;;10.30;99.90;;;;;;4940635;28;20051;-63
2023/06/14 01:02:17;;;;;;;4.50;3.17;;;10.30;99.90;;;;;;4903130;28;1074885;-63
2023/06/14 01:04:50;;;;;;;3.90;2.92;;;10.20;99.80;;;;;;4938896;28;20573;-63
2023/06/14 01:07:35;;;;;;;2.97;2.63;;;10.20;99.60;;;;;;4956061;28;20048;-63
2023/06/14 01:10:27;;;;;;;4.63;2.92;;;10.20;99.90;;;;;;4952354;28;20834;-69
2023/06/14 01:13:36;;;;;;;5.30;3.10;;;10.20;99.90;;;;;;4941791;28;20051;-64
2023/06/14 01:16:04;;;;;;;2.60;2.08;;;10.10;99.90;;;;;;4888850;29;20103;-64
2023/06/14 01:18:32;;;;;;;2.30;2.08;;;10.10;99.90;;;;;;4933521;28;20055;-64
2023/06/14 01:21:05;;;;;;;2.67;2.47;;;10.00;99.90;;;;;;4938793;28;20047;-63
2023/06/14 01:23:32;;;;;;;3.85;2.88;;;10.00;99.90;;;;;;4936686;28;20050;-66
2023/06/14 01:26:03;;;;;;;3.35;2.25;;;9.90;99.90;;;;;;4960164;28;20652;-64
2023/06/14 01:28:33;;;;;;;4.32;3.78;;;9.90;99.90;;;;;;4948472;28;20047;-64
2023/06/14 01:31:05;;;;;;;3.97;2.47;;;9.90;99.90;;;;;;4937638;28;20106;-66
2023/06/14 01:33:35;;;;;;;3.58;2.90;;;9.80;99.90;;;;;;4950783;28;20069;-64
2023/06/14 01:36:04;;;;;;;5.55;3.53;;;9.80;99.90;;;;;;4935501;28;20083;-64
2023/06/14 01:38:32;;;;;;;2.90;2.70;;;9.70;99.90;;;;;;4953959;28;20061;-68
2023/06/14 01:41:01;;;;;;;2.63;2.25;;;9.70;99.90;;;;;;4940172;28;20345;-63
2023/06/14 01:43:30;;;;;;;3.78;3.05;;;9.60;99.90;;;;;;4939379;28;20519;-66
2023/06/14 01:45:59;;;;;;;3.97;2.97;;;9.60;99.90;;;;;;4942053;28;20421;-68
2023/06/14 01:48:27;;;;;;;3.28;2.97;;;9.50;99.90;;;;;;4936455;28;20059;-71
2023/06/14 01:50:54;;;;;;;3.60;3.30;;;9.50;99.90;;;;;;4935456;28;20458;-65
2023/06/14 01:53:21;;;;;;;3.15;2.88;;;9.50;99.90;;;;;;4942864;28;20075;-64
2023/06/14 01:55:48;;;;;;;3.45;3.03;;;9.50;99.90;;;;;;4938681;28;20035;-65
2023/06/14 01:58:16;;;;;;;4.30;3.00;;;9.50;99.90;;;;;;4938324;28;20040;-65
2023/06/14 02:00:43;;;;;;;3.90;3.38;;;9.50;99.90;;;;;;4945063;28;20494;-67
2023/06/14 02:03:12;;;;;;;3.97;2.88;;;9.40;99.90;;;;;;4936101;28;20051;-63
2023/06/14 02:05:39;;;;;;;4.40;3.15;;;9.40;99.90;;;;;;4942476;28;20047;-66
2023/06/14 02:08:07;;;;;;;4.03;2.63;;;9.40;99.90;;;;;;4939005;28;20059;-64
2023/06/14 02:10:34;;;;;;;3.35;2.88;;;9.40;99.90;;;;;;4941760;28;20742;-65
2023/06/14 02:13:02;;;;;;;3.63;2.83;;;9.40;99.90;;;;;;4937533;28;20046;-66
2023/06/14 02:15:33;;;;;;;3.97;3.58;;;9.40;99.90;;;;;;4938277;28;20090;-65
2023/06/14 02:18:04;;;;;;;4.57;2.45;;;9.30;99.90;;;;;;4935773;28;20051;-65
2023/06/14 02:20:33;;;;;;;3.08;2.78;;;9.30;99.90;;;;;;4931916;28;20520;-68
2023/06/14 02:23:00;;;;;;;3.33;3.00;;;9.30;99.90;;;;;;4934580;28;20086;-63
2023/06/14 02:25:30;;;;;;;;;;;9.30;99.90;;;;;;4933486;28;20059;-64
2023/06/14 02:27:58;;;;;;;7.57;3.38;;;9.40;99.90;;;;;;4939820;28;19923;-66
2023/06/14 02:30:25;;;;;;;4.32;3.58;;;9.30;99.90;;;;;;4936055;28;20078;-66
2023/06/14 02:32:54;;;;;;;3.75;3.17;;;9.40;99.90;;;;;;4954171;28;20062;-63
2023/06/14 02:35:24;;;;;;;5.85;5.32;;;9.40;99.90;;;;;;4941012;28;20042;-66
2023/06/14 02:37:51;;;;;;;3.60;3.28;;;9.40;99.90;;;;;;4939800;28;20036;-63
2023/06/14 02:40:19;;;;;;;5.78;3.00;;;9.40;99.90;;;;;;4952750;28;20114;-65
2023/06/14 02:42:46;;;;;;;4.45;3.38;;;9.40;99.90;;;;;;4929585;28;20055;-67
2023/06/14 02:45:13;;;;;;;3.75;3.20;;;9.40;99.90;;;;;;4934301;28;20040;-66
2023/06/14 02:47:40;;;;;;;4.15;3.80;;;9.40;99.90;;;;;;4939013;28;20175;-64
2023/06/14 02:50:08;;;;;;;6.55;4.03;;;9.40;99.90;;;;;;4935854;28;20043;-66
2023/06/14 02:52:35;;;;;;;4.20;3.63;;;9.50;99.90;;;;;;4935997;28;20099;-66
2023/06/14 02:55:02;;;;;;;5.57;4.28;;;9.50;99.90;;;;;;4950694;28;20087;-67
2023/06/14 02:57:28;;;;;;;4.60;3.13;;;9.50;99.90;;;;;;4935358;28;20079;-64
2023/06/14 02:59:55;;;;;;;4.55;3.83;;;9.50;99.90;;;;;;4936498;28;20109;-63
2023/06/14 03:02:22;;;;;;;3.30;2.85;;;9.50;99.90;;;;;;4936310;28;20070;-67
2023/06/14 03:04:50;;;;;;;3.35;3.03;;;9.50;99.90;;;;;;4938343;28;20680;-64
2023/06/14 03:07:19;;;;;;;3.20;2.78;;;9.60;99.90;;;;;;4936871;28;20055;-63
2023/06/14 03:09:49;;;;;;;6.68;2.72;;;9.60;99.90;;;;;;4955506;28;20052;-63
2023/06/14 03:12:17;;;;;;;6.05;3.35;;;9.70;99.90;;;;;;4934205;28;20052;-64
2023/06/14 03:14:45;;;;;;;3.33;2.22;;;9.70;99.90;;;;;;4943456;28;20047;-66
2023/06/14 03:17:17;;;;;;;6.15;3.47;;;9.70;99.90;;;;;;4933950;28;20062;-64
2023/06/14 03:19:44;;;;;;;4.95;2.75;;;9.80;99.90;;;;;;4943711;28;20055;-63
2023/06/14 03:22:12;;;;;;;10.10;2.60;;;9.80;99.90;;;;;;4933180;28;20067;-66
2023/06/14 03:24:41;;;;;;;5.45;3.35;;;9.80;99.90;;;;;;4957000;28;20143;-66
2023/06/14 03:27:12;;;;;;;3.10;2.70;;;9.90;99.90;;;;;;4959315;28;20079;-64
2023/06/14 03:29:42;;;;;;;2.65;2.35;;;9.90;99.90;;;;;;4950767;28;20087;-67
2023/06/14 03:32:09;;;;;;;3.55;3.00;;;10.00;99.90;;;;;;4935812;28;20047;-64
2023/06/14 03:34:39;;;;;;;5.03;2.85;;;10.00;99.90;;;;;;4941863;28;20153;-65
2023/06/14 03:37:08;;;;;;;2.85;2.33;;;10.10;99.90;;;;;;4942367;28;20051;-64
2023/06/14 03:39:35;;;;;;;4.40;3.10;;;10.20;99.90;;;;;;4932350;28;20058;-63
2023/06/14 03:42:03;;;;;;;4.35;2.65;;;10.20;99.90;;;;;;4939337;28;20055;-64
2023/06/14 03:44:31;;;;;;;4.13;3.20;;;10.30;99.90;;;;;;4939690;28;20146;-67
2023/06/14 03:47:00;;;;;;;6.10;3.65;;;10.30;99.90;;;;;;4954059;28;20067;-64
2023/06/14 03:49:28;;;;;;;11.07;4.35;;;10.40;99.90;;;;;;4954874;28;20055;-65
2023/06/14 03:51:55;;;;;;;4.03;2.92;;;10.50;99.90;;;;;;4941400;28;20059;-64
2023/06/14 03:54:23;;;;;;;8.45;4.35;;;10.50;99.90;;;;;;4942843;28;20487;-64
2023/06/14 03:56:54;;;;;;;3.05;2.45;;;10.60;99.90;;;;;;4954405;28;20058;-63
2023/06/14 03:59:21;;;;;;;6.75;3.30;;;10.70;99.90;;;;;;4953434;28;20379;-67
2023/06/14 04:01:48;;;;;;;7.93;4.13;;;10.80;99.90;;;;;;4939424;28;20046;-66
2023/06/14 04:04:16;;;;;;;6.00;3.70;;;10.80;99.90;;;;;;4958902;28;20051;-63
2023/06/14 04:06:43;;;;;;;4.72;3.00;;;10.90;99.90;;;;;;4942053;28;20366;-63
2023/06/14 04:09:11;;;;;;;10.77;4.13;;;11.00;99.90;;;;;;4954536;28;20063;-66
2023/06/14 04:11:37;;;;;;;11.90;4.88;;;11.10;99.90;;;;;;4938358;28;20419;-65
2023/06/14 04:14:05;;;;;;;5.95;3.90;;;11.20;99.90;;;;;;4942518;28;20067;-67
2023/06/14 04:16:32;;;;;;;6.90;3.33;;;11.30;99.90;;;;;;4936884;28;20425;-65
2023/06/14 04:19:00;;;;;;;8.15;3.55;;;11.40;99.90;;;;;;4938158;28;20478;-64
2023/06/14 04:21:28;;;;;;;4.32;3.35;;;11.50;99.90;;;;;;4953816;28;20066;-68
2023/06/14 04:23:57;;;;;;;9.07;3.28;;;11.60;99.90;;;;;;4940019;28;20051;-66
2023/06/14 04:26:33;;;;;;;7.30;3.57;;;11.70;99.90;;;;;;4953915;28;20155;-65
2023/06/14 04:29:03;;;;;;;8.95;4.05;;;11.80;99.90;;;;;;4938698;28;20988;-66
2023/06/14 04:31:34;;;;;;;9.20;3.60;;;12.00;99.90;;;;;;4942855;28;20062;-65
2023/06/14 04:34:05;;;;;;;12.35;3.80;;;12.10;99.90;;;;;;4945523;28;20126;-64
2023/06/14 04:36:37;;;;;;;13.45;5.13;;;12.30;99.90;;;;;;4935851;28;20059;-66
2023/06/14 04:39:06;;;;;;;11.80;3.75;;;12.40;99.90;;;;;;4945163;28;20055;-68
2023/06/14 04:41:34;;;;;;;13.52;3.30;;;12.60;99.90;;;;;;4941655;28;20047;-64
2023/06/14 04:44:03;;;;;;;8.52;3.72;;;12.80;99.90;;;;;;4938352;28;20047;-64
2023/06/14 04:46:43;;;;;;;5.25;3.47;;;12.90;99.90;;;;;;4942838;28;20489;-63
2023/06/14 04:49:17;;;;;;;7.93;3.67;;;13.00;99.90;;;;;;4935953;28;20059;-63
2023/06/14 04:51:46;;;;;;;6.68;2.65;;;13.20;99.90;;;;;;4939362;28;20046;-63
2023/06/14 04:54:14;;;;;;;5.85;2.63;;;13.30;99.50;;;;;;4936398;28;20043;-67
2023/06/14 04:56:42;;;;;;;6.30;2.55;;;13.50;99.00;;;;;;4939641;28;20227;-65
2023/06/14 04:59:14;;;;;;;5.35;2.42;;;13.60;98.60;;;;;;4936748;28;20067;-64
2023/06/14 05:01:42;;;;;;;4.30;2.30;;;13.80;98.20;;;;;;4938510;28;20142;-64
2023/06/14 05:04:09;;;;;;;4.82;2.70;;;13.80;98.10;;;;;;4939064;28;20050;-63
2023/06/14 05:06:36;;;;;;;3.30;2.75;;;13.90;98.10;;;;;;4936822;28;20611;-64
2023/06/14 05:09:03;;;;;;;3.28;2.63;;;14.00;97.70;;;;;;4936801;28;20438;-66
2023/06/14 05:11:30;;;;;;;3.17;2.88;;;14.10;97.50;;;;;;4941676;28;20381;-64
2023/06/14 05:13:58;;;;;;;4.20;2.75;;;14.20;97.10;;;;;;4935725;28;20561;-69
2023/06/14 05:16:27;;;;;;;7.40;3.08;;;14.30;96.60;;;;;;4954755;28;20051;-67
2023/06/14 05:18:54;;;;;;;5.05;2.28;;;14.40;96.10;;;;;;4944248;28;20047;-64
2023/06/14 05:21:21;;;;;;;5.50;2.50;;;14.50;96.00;;;;;;4942240;28;20535;-68
2023/06/14 05:23:48;;;;;;;2.22;1.98;;;14.60;95.90;;;;;;4940750;28;20118;-65
2023/06/14 05:26:16;;;;;;;5.10;2.95;;;14.70;94.50;;;;;;4937413;28;20438;-65
2023/06/14 05:28:42;;;;;;;4.05;2.83;;;14.80;94.40;;;;;;4937379;28;20079;-66
2023/06/14 05:31:09;;;;;;;8.00;3.72;;;14.90;94.30;;;;;;4937504;28;20586;-65
2023/06/14 05:33:36;;;;;;;7.22;4.65;;;15.00;94.10;;;;;;4941006;28;20055;-63
2023/06/14 05:36:03;;;;;;;5.65;3.55;;;15.10;93.90;;;;;;4942124;28;20047;-65
2023/06/14 05:38:32;;;;;;;16.92;8.15;;;15.20;92.70;;;;;;4936921;28;20434;-65
2023/06/14 05:40:59;;;;;;;6.35;3.55;;;15.30;92.70;;;;;;4940570;28;20105;-64
2023/06/14 05:43:26;;;;;;;4.82;4.35;;;15.50;92.20;;;;;;4937212;28;20569;-69
2023/06/14 05:45:53;;;;;;;6.00;2.97;;;15.60;92.00;;;;;;4938934;28;20533;-63
2023/06/14 05:48:20;;;;;;;6.50;3.08;;;15.70;91.70;;;;;;4943933;28;20150;-64
2023/06/14 05:50:47;;;;;;;2.78;2.22;;;15.70;91.90;;;;;;4936457;28;20071;-66
2023/06/14 05:53:14;;;;;;;3.28;2.38;;;15.80;91.80;;;;;;4938752;28;20151;-64
2023/06/14 05:55:41;;;;;;;3.67;2.03;;;15.90;91.30;;;;;;4937218;28;20087;-67
2023/06/14 05:58:08;;;;;;;3.35;2.65;;;15.90;91.40;;;;;;4939958;28;20040;-70
2023/06/14 06:00:35;;;;;;;7.40;2.38;;;16.00;90.80;;;;;;4939302;28;20481;-64
2023/06/14 06:03:02;;;;;;;4.70;1.92;;;16.10;90.10;;;;;;4939287;28;20524;-67
2023/06/14 06:05:29;;;;;;;18.85;3.30;;;16.20;90.40;;;;;;4941297;28;20054;-66
2023/06/14 06:07:56;;;;;;;9.07;3.05;;;16.30;89.00;;;;;;4939336;28;20397;-63
2023/06/14 06:10:23;;;;;;;4.03;3.22;;;16.50;92.10;;;;;;4938433;28;20107;-68
2023/06/14 06:12:51;;;;;;;5.28;2.92;;;16.70;92.00;;;;;;4943863;28;20055;-66
2023/06/14 06:15:18;;;;;;;4.95;2.33;;;16.80;92.40;;;;;;4937613;28;20098;-64
2023/06/14 06:17:46;;;;;;;5.18;3.00;;;16.80;92.20;;;;;;4938503;28;20061;-64
2023/06/14 06:20:28;;;;;;;7.88;3.20;;;16.80;93.10;;;;;;4933959;28;20050;-67
2023/06/14 06:22:57;;;;;;;7.15;3.22;;;16.90;93.00;;;;;;4940825;28;20060;-67
2023/06/14 06:25:26;;;;;;;16.45;6.40;;;16.90;92.70;;;;;;4941767;28;20533;-69
2023/06/14 06:27:56;;;;;;;7.80;4.10;;;16.90;91.80;;;;;;4941295;28;20051;-66
2023/06/14 06:30:23;;;;;;;16.15;4.15;;;16.90;92.10;;;;;;4939303;28;20446;-69
2023/06/14 06:32:50;;;;;;;4.78;3.03;;;16.90;91.50;;;;;;4940130;28;20369;-66
2023/06/14 06:35:17;;;;;;;3.83;2.78;;;17.00;92.30;;;;;;4936829;28;20054;-65
2023/06/14 06:37:44;;;;;;;3.40;2.75;;;17.20;92.00;;;;;;4945576;28;20510;-64
2023/06/14 06:40:12;;;;;;;4.20;2.63;;;17.20;91.00;;;;;;4939106;28;20067;-67
2023/06/14 06:42:39;;;;;;;6.18;2.72;;;17.30;91.40;;;;;;4939600;28;20126;-65
2023/06/14 06:45:07;;;;;;;7.15;3.40;;;17.30;91.30;;;;;;4939792;28;20051;-67
2023/06/14 06:47:34;;;;;;;8.27;2.95;;;17.40;91.40;;;;;;4944745;28;20039;-64
2023/06/14 06:50:01;;;;;;;3.67;2.38;;;17.50;91.30;;;;;;4941331;28;20444;-67
2023/06/14 06:52:29;;;;;;;5.47;3.22;;;17.60;90.70;;;;;;4941682;28;20067;-64
2023/06/14 06:54:56;;;;;;;6.70;2.55;;;17.60;90.30;;;;;;4940605;28;20134;-67
2023/06/14 06:57:23;;;;;;;4.88;2.13;;;17.70;90.70;;;;;;4938044;28;20142;-66
2023/06/14 06:59:50;;;;;;;4.22;2.78;;;17.70;89.80;;;;;;4940546;28;20051;-64
2023/06/14 07:02:18;;;;;;;7.65;2.80;;;17.80;90.10;;;;;;4939648;28;20052;-65
2023/06/14 07:04:45;;;;;;;4.65;2.58;;;17.90;89.00;;;;;;4937202;28;20146;-65
2023/06/14 07:07:12;;;;;;;4.13;2.42;;;17.90;88.20;;;;;;4941387;28;20047;-64
2023/06/14 07:09:41;;;;;;;2.72;1.88;;;18.00;88.50;;;;;;4942079;28;20065;-69
2023/06/14 07:12:08;;;;;;;4.05;2.10;;;18.00;87.70;;;;;;4953746;28;20059;-64
2023/06/14 07:14:35;;;;;;;6.00;2.78;;;18.00;90.10;;;;;;4937925;28;20490;-64
2023/06/14 07:17:02;;;;;;;3.58;2.78;;;18.10;89.90;;;;;;4943707;28;20466;-69
2023/06/14 07:19:30;;;;;;;5.13;2.10;;;18.20;88.60;;;;;;4937883;28;20048;-64
2023/06/14 07:21:58;;;;;;;2.67;1.80;;;18.20;87.10;;;;;;4937711;28;20055;-64
2023/06/14 07:24:25;;;;;;;4.38;2.97;;;18.30;87.10;;;;;;4941620;28;20043;-68
2023/06/14 07:26:52;;;;;;;4.03;2.20;;;18.30;86.60;;;;;;4941150;28;20497;-63
2023/06/14 07:29:20;;;;;;;3.55;2.15;;;18.40;86.10;;;;;;4940980;28;20105;-64
2023/06/14 07:31:47;;;;;;;4.38;1.85;;;18.40;85.90;;;;;;4941016;28;20043;-64
2023/06/14 07:34:14;;;;;;;4.78;2.63;;;18.40;86.80;;;;;;4941546;28;20091;-65
2023/06/14 07:36:44;;;;;;;11.00;2.25;;;18.50;86.40;;;;;;4944110;28;20150;-65
2023/06/14 07:39:11;;;;;;;5.38;2.88;;;18.40;87.50;;;;;;4941552;28;20412;-65
2023/06/14 07:41:38;;;;;;;4.18;1.90;;;18.40;88.70;;;;;;4941890;28;20047;-65
2023/06/14 07:44:05;;;;;;;8.25;2.88;;;18.50;89.00;;;;;;4936044;28;20047;-64
2023/06/14 07:46:32;;;;;;;4.53;2.50;;;18.40;89.10;;;;;;4938285;28;20054;-66
2023/06/14 07:48:59;;;;;;;4.60;2.67;;;18.40;88.00;;;;;;4943155;28;20413;-64
2023/06/14 07:51:26;;;;;;;2.20;2.00;;;18.50;88.10;;;;;;4942688;28;20093;-66
2023/06/14 07:53:53;;;;;;;4.88;2.13;;;18.50;89.40;;;;;;4933898;28;20071;-68
2023/06/14 07:56:20;;;;;;;3.20;2.40;;;18.40;90.00;;;;;;4941068;28;20044;-64
2023/06/14 07:58:47;;;;;;;3.53;2.28;;;18.50;88.30;;;;;;4938120;28;20036;-64
2023/06/14 08:01:15;;;;;;;2.10;1.90;;;18.60;88.70;;;;;;4942706;28;20047;-68
2023/06/14 08:03:41;;;;;;;10.18;3.38;;;18.60;87.50;;;;;;4933545;28;20134;-64
2023/06/14 08:06:09;;;;;;;4.97;2.65;;;18.70;87.20;;;;;;4937309;28;20059;-66
2023/06/14 08:08:36;;;;;;;4.18;2.35;;;18.70;85.00;;;;;;4941377;28;20502;-65
2023/06/14 08:11:03;;;;;;;8.23;1.88;;;18.70;85.70;;;;;;4939556;28;20051;-65
2023/06/14 08:13:30;;;;;;;7.70;2.92;;;18.80;85.30;;;;;;4940636;28;20047;-64
2023/06/14 08:15:57;;;;;;;3.80;2.45;;;18.80;84.50;;;;;;4942795;28;20070;-64
2023/06/14 08:18:24;;;;;;;7.47;2.42;;;18.80;84.60;;;;;;4940633;28;20139;-65
2023/06/14 08:20:52;;;;;;;2.13;1.92;;;18.90;84.40;;;;;;4939555;28;20516;-66
2023/06/14 08:23:20;;;;;;;4.25;1.90;;;19.00;84.70;;;;;;4941721;28;20043;-66
2023/06/14 08:25:47;;;;;;;8.00;2.55;;;19.00;84.00;;;;;;4941653;28;20048;-66
2023/06/14 08:28:14;;;;;;;7.45;2.30;;;19.00;85.20;;;;;;4940430;28;20040;-64
2023/06/14 08:30:42;;;;;;;5.00;2.15;;;19.00;87.00;;;;;;4938670;28;20126;-65
2023/06/14 08:33:09;;;;;;;3.30;2.03;;;19.10;87.80;;;;;;4942817;28;20176;-64
2023/06/14 08:35:43;;;;;;;4.00;2.20;;;19.20;87.50;;;;;;4934118;28;20066;-64
2023/06/14 08:38:11;;;;;;;2.17;1.92;;;19.40;89.40;;;;;;4940043;28;20130;-63
2023/06/14 08:40:41;;;;;;;5.43;2.42;;;19.40;88.70;;;;;;4937546;28;20126;-64
2023/06/14 08:43:08;;;;;;;6.80;2.93;;;19.30;90.30;;;;;;4936496;28;20040;-64
2023/06/14 08:45:35;;;;;;;3.95;2.55;;;19.40;90.30;;;;;;4935411;28;20051;-66
2023/06/14 08:48:03;;;;;;;3.28;2.13;;;19.50;90.20;;;;;;4945230;28;20135;-63
2023/06/14 08:50:31;;;;;;;2.60;1.83;;;19.60;90.00;;;;;;4937856;28;20106;-64
2023/06/14 08:53:02;;;;;;;;;;;19.70;89.70;;;;;;4942340;28;20331;-64
2023/06/14 08:55:32;;;;;;;;;;;19.70;90.60;;;;;;4939742;28;19978;-65
2023/06/14 08:58:04;;;;;;;3.05;2.30;;;19.70;90.90;;;;;;4939996;28;20287;-69
2023/06/14 09:00:32;;;;;;;5.55;2.35;;;19.70;91.50;;;;;;4935901;28;20469;-65
2023/06/14 09:03:00;;;;;;;2.63;2.10;;;19.60;91.50;;;;;;4939274;28;20077;-64
2023/06/14 09:05:28;;;;;;;4.30;2.65;;;19.40;92.30;;;;;;4936191;28;20569;-67
2023/06/14 09:08:00;;;;;;;2.38;1.95;;;19.30;92.40;;;;;;4935056;28;20047;-64
2023/06/14 09:10:34;;;;;;;5.88;2.22;;;19.40;91.40;;;;;;4933669;28;20113;-67
2023/06/14 09:13:01;;;;;;;2.35;2.00;;;19.60;90.80;;;;;;4941020;28;20332;-66
2023/06/14 09:15:30;;;;;;;3.95;2.47;;;19.60;89.60;;;;;;4934813;28;20519;-66
2023/06/14 09:17:57;;;;;;;2.42;2.05;;;19.50;88.70;;;;;;4935986;28;20458;-66
2023/06/14 09:20:25;;;;;;;2.17;1.92;;;19.80;88.00;;;;;;4937084;28;20040;-68
2023/06/14 09:22:53;;;;;;;4.25;2.75;;;20.00;86.60;;;;;;4942924;28;20054;-66
2023/06/14 09:25:20;;;;;;;12.30;2.22;;;20.10;87.10;;;;;;4934011;28;22066;-67
2023/06/14 09:28:07;;;;;;;2.10;2.00;;;20.20;87.50;;;;;;4935659;28;20413;-64
2023/06/14 09:30:39;;;;;;;2.38;1.88;;;20.30;87.60;;;;;;4938266;28;20154;-67
2023/06/14 09:33:06;;;;;;;2.53;2.08;;;20.30;87.80;;;;;;4939742;28;20051;-70
2023/06/14 09:35:33;;;;;;;3.25;2.30;;;20.30;87.80;;;;;;4941415;28;20058;-67
2023/06/14 09:38:00;;;;;;;5.75;3.10;;;20.40;89.80;;;;;;4939856;28;20051;-64
2023/06/14 09:40:27;;;;;;;4.78;3.38;;;20.30;91.90;;;;;;4940616;28;20043;-65
2023/06/14 09:42:57;;;;;;;3.97;2.80;;;20.30;92.00;;;;;;4938436;28;20044;-65
2023/06/14 09:45:29;;;;;;;7.07;2.60;;;20.50;89.90;;;;;;4943551;28;20065;-64
2023/06/14 09:47:57;;;;;;;2.72;2.20;;;20.60;86.00;;;;;;4936410;28;20039;-67
2023/06/14 09:50:33;;;;;;;4.88;2.03;;;20.70;85.60;;;;;;4938809;28;20896;-66
2023/06/14 09:53:06;;;;;;;4.07;2.35;;;20.70;85.30;;;;;;4942372;28;20449;-64
2023/06/14 09:55:37;;;;;;;2.67;1.92;;;20.80;84.00;;;;;;4936755;28;20072;-64
2023/06/14 09:58:06;;;;;;;2.97;1.83;;;20.80;86.20;;;;;;4938666;28;20130;-65
2023/06/14 10:00:36;;;;;;;4.30;2.20;;;20.80;88.10;;;;;;4937309;28;20048;-65
2023/06/14 10:03:11;;;;;;;4.75;2.47;;;20.90;88.80;;;;;;4941146;28;20055;-67
2023/06/14 10:05:43;;;;;;;3.92;2.20;;;20.90;90.30;;;;;;4936600;28;20601;-65
2023/06/14 10:08:15;;;;;;;2.20;2.00;;;20.90;88.10;;;;;;4941102;28;20131;-64
2023/06/14 10:10:44;;;;;;;3.88;2.38;;;20.80;90.30;;;;;;4937749;28;20060;-63
2023/06/14 10:13:12;;;;;;;3.15;2.33;;;20.60;89.60;;;;;;4939594;28;20039;-63
2023/06/14 10:15:52;;;;;;;6.93;2.90;;;20.40;89.40;;;;;;4936892;28;20099;-65
2023/06/14 10:18:47;;;;;;;2.53;2.30;;;20.30;87.20;;;;;;4954490;28;20051;-64
2023/06/14 10:21:43;;;;;;;5.25;3.60;;;20.10;89.60;;;;;;4939076;28;20043;-64
2023/06/14 10:24:15;;;;;;;3.03;2.20;;;20.20;90.60;;;;;;4942366;28;20043;-65
2023/06/14 10:26:53;;;;;;;3.90;1.85;;;20.10;86.80;;;;;;4940879;28;20050;-66
2023/06/14 10:29:24;;;;;;;2.55;2.13;;;20.30;90.40;;;;;;4941191;28;20058;-67
2023/06/14 10:31:56;;;;;;;2.40;2.20;;;20.40;91.50;;;;;;4938764;28;20062;-67
2023/06/14 10:34:25;;;;;;;6.13;2.72;;;20.20;93.60;;;;;;4941946;28;20547;-68
2023/06/14 10:37:05;;;;;;;5.13;2.13;;;20.20;90.90;;;;;;4940508;28;20126;-66
2023/06/14 10:39:43;;;;;;;7.10;2.72;;;20.20;93.10;;;;;;4951294;28;20130;-65
2023/06/14 10:42:10;;;;;;;4.55;2.38;;;20.20;93.30;;;;;;4944163;28;20109;-64
2023/06/14 10:44:37;;;;;;;2.28;1.90;;;20.40;93.10;;;;;;4943030;28;20062;-65
2023/06/14 10:47:08;;;;;;;5.30;2.08;;;20.60;91.30;;;;;;4940380;28;20074;-64
2023/06/14 10:49:45;;;;;;;5.15;2.55;;;20.40;90.70;;;;;;4942926;28;20055;-67
2023/06/14 10:52:18;;;;;;;2.72;2.53;;;20.40;89.80;;;;;;4941393;28;20051;-64
2023/06/14 10:55:11;;;;;;;6.43;2.72;;;20.30;92.20;;;;;;4943813;28;20113;-64
2023/06/14 10:57:58;;;;;;;2.78;2.58;;;20.30;92.50;;;;;;4942293;28;20081;-64
2023/06/14 11:00:28;;;;;;;2.58;2.30;;;20.40;93.00;;;;;;4956206;28;20159;-65
2023/06/14 11:03:13;;;;;;;4.72;2.30;;;20.40;91.80;;;;;;4940730;28;20161;-65
2023/06/14 11:05:55;;;;;;;4.25;3.85;;;20.50;91.10;;;;;;4933863;28;20050;-66
2023/06/14 11:08:37;;;;;;;3.00;2.38;;;20.60;91.20;;;;;;4940374;28;20149;-68
2023/06/14 11:11:09;;;;;;;2.83;2.05;;;20.60;90.90;;;;;;4937744;28;20044;-65
2023/06/14 11:13:41;;;;;;;3.45;2.47;;;21.00;90.70;;;;;;4937238;28;20493;-69
2023/06/14 11:16:15;;;;;;;8.32;2.72;;;21.10;88.70;;;;;;4939640;28;20126;-66
2023/06/14 11:18:44;;;;;;;2.22;1.90;;;21.10;90.20;;;;;;4944227;28;20050;-65
2023/06/14 11:21:15;;;;;;;4.20;2.10;;;21.30;90.40;;;;;;4936762;28;20042;-65
2023/06/14 11:23:42;;;;;;;;;;;21.30;88.00;;;;;;4936982;28;20122;-68
2023/06/14 11:26:09;;;;;;;3.10;2.33;;;21.40;88.70;;;;;;4951602;28;20381;-67
2023/06/14 11:28:38;;;;;;;6.28;2.25;;;21.40;91.90;;;;;;4942957;28;20054;-68
2023/06/14 11:31:05;;;;;;;3.63;2.40;;;21.00;91.00;;;;;;4937696;28;20044;-64
2023/06/14 11:33:33;;;;;;;2.83;2.00;;;20.90;92.10;;;;;;4940155;28;20039;-68
2023/06/14 11:36:04;;;;;;;3.80;2.13;;;21.00;90.90;;;;;;4940548;28;20362;-67
2023/06/14 11:38:36;;;;;;;4.82;2.65;;;21.20;91.90;;;;;;4944554;28;20039;-63
2023/06/14 11:41:03;;;;;;;4.65;1.75;;;21.30;91.80;;;;;;4938635;28;20405;-64
2023/06/14 11:43:32;;;;;;;2.20;2.03;;;21.40;92.70;;;;;;4936820;28;20071;-67
2023/06/14 11:45:59;;;;;;;5.38;2.33;;;21.50;92.20;;;;;;4942230;28;20454;-67
2023/06/14 11:48:40;;;;;;;6.55;1.95;;;21.50;90.20;;;;;;4944572;28;20058;-65
2023/06/14 11:51:07;;;;;;;4.35;1.65;;;21.50;90.80;;;;;;4955826;28;20052;-63
2023/06/14 11:53:35;;;;;;;4.60;1.77;;;21.70;87.40;;;;;;4940250;28;20393;-66
2023/06/14 11:56:02;;;;;;;4.28;2.33;;;21.90;85.80;;;;;;4940381;28;20154;-64
2023/06/14 11:58:29;;;;;;;4.45;1.75;;;21.90;86.20;;;;;;4943577;28;20035;-66
2023/06/14 12:00:57;;;;;;;1.80;1.30;;;22.00;87.00;;;;;;4957962;28;20050;-67
2023/06/14 12:03:27;;;;;;;3.50;2.30;;;22.20;84.30;;;;;;4944002;28;20118;-65
2023/06/14 12:06:08;;;;;;;5.80;1.92;;;22.20;86.60;;;;;;4937996;28;20158;-64
2023/06/14 12:08:39;;;;;;;5.45;1.60;;;22.00;90.70;;;;;;4937195;28;20577;-64
2023/06/14 12:11:13;;;;;;;6.38;2.80;;;21.60;91.40;;;;;;4935806;28;20066;-64
2023/06/14 12:13:43;;;;;;;2.03;1.80;;;21.30;92.30;;;;;;4941336;28;20506;-64
2023/06/14 12:16:12;;;;;;;1.88;1.73;;;21.40;92.00;;;;;;4936635;28;20051;-67
2023/06/14 12:18:40;;;;;;;3.05;2.13;;;21.80;91.40;;;;;;4940089;28;20163;-67
2023/06/14 12:21:09;;;;;;;4.72;2.65;;;21.90;91.80;;;;;;4937134;28;20086;-65
2023/06/14 12:23:44;;;;;;;2.80;1.42;;;22.00;91.50;;;;;;4943305;28;20137;-63
2023/06/14 12:26:19;;;;;;;4.13;2.30;;;22.10;91.30;;;;;;4937169;28;20051;-67
2023/06/14 12:28:47;;;;;;;4.57;2.13;;;22.10;90.50;;;;;;4938726;28;20054;-65
2023/06/14 12:31:16;;;;;;;3.28;1.98;;;22.10;90.40;;;;;;4937901;28;20048;-65
2023/06/14 12:33:45;;;;;;;2.08;1.75;;;22.10;90.40;;;;;;4943497;28;20036;-64
2023/06/14 12:36:13;;;;;;;3.50;2.75;;;22.10;90.60;;;;;;4934814;28;20509;-66
2023/06/14 12:38:40;;;;;;;3.95;2.03;;;22.20;90.50;;;;;;4942689;28;20043;-68
2023/06/14 12:41:07;;;;;;;2.15;1.92;;;22.10;90.30;;;;;;4935091;28;20552;-65
2023/06/14 12:43:34;;;;;;;7.20;3.47;;;22.10;90.80;;;;;;4938474;28;20161;-64
2023/06/14 12:46:01;;;;;;;2.47;2.28;;;21.90;91.90;;;;;;4939070;28;20591;-69
2023/06/14 12:48:30;;;;;;;4.15;1.98;;;22.00;92.30;;;;;;4944032;28;20480;-64
2023/06/14 12:50:58;;;;;;;2.40;2.25;;;22.20;91.60;;;;;;4942226;28;20444;-64
2023/06/14 12:53:25;;;;;;;4.15;2.65;;;22.50;90.80;;;;;;4938971;28;20067;-68
2023/06/14 12:55:52;;;;;;;5.57;2.50;;;22.50;91.30;;;;;;4940560;28;20047;-65
2023/06/14 12:58:19;;;;;;;3.38;2.30;;;22.20;92.10;;;;;;4935202;28;20058;-66